Time;durP1;ratioP1;P1;durP2;ratioP2;P2;SDS_P1;SDS_P2;PMS_P1;PMS_P2;Temp;Humidity;BMP_temperature;BMP_pressure;BME280_temperature;BME280_humidity;BME280_pressure;Samples;Min_cycle;Max_cycle;Signal;HPM_P1;HPM_P2
2021/08/24 00:00:51;;;;;;;4.78;2.38;;;;;;;24.19;51.59;101270.38;4974635;28;20497;-63
2021/08/24 00:03:18;;;;;;;8.35;2.80;;;;;;;24.20;51.60;101268.50;4974517;28;20097;-64
2021/08/24 00:05:49;;;;;;;9.23;2.90;;;;;;;24.17;51.91;101264.31;4974563;28;20063;-64
2021/08/24 00:08:16;;;;;;;8.07;2.92;;;;;;;24.13;51.63;101266.47;4974570;28;20047;-64
2021/08/24 00:10:51;;;;;;;4.22;2.38;;;;;;;24.12;51.70;101269.31;4974542;28;20050;-64
2021/08/24 00:13:20;;;;;;;4.93;2.38;;;;;;;24.10;51.43;101260.63;4974365;28;20047;-64
2021/08/24 00:15:49;;;;;;;7.28;2.50;;;;;;;24.07;51.55;101253.72;4974544;28;20055;-64
2021/08/24 00:18:16;;;;;;;5.47;2.58;;;;;;;24.04;51.68;101255.91;4974431;28;20061;-63
2021/08/24 00:20:45;;;;;;;7.32;2.72;;;;;;;24.04;51.88;101250.56;4974303;28;20174;-63
2021/08/24 00:23:15;;;;;;;5.50;2.95;;;;;;;24.01;51.89;101254.41;4974084;28;20057;-64
2021/08/24 00:25:42;;;;;;;5.60;3.75;;;;;;;23.98;51.92;101253.88;4974271;28;20051;-63
2021/08/24 00:28:09;;;;;;;5.28;2.97;;;;;;;23.93;52.13;101252.53;4974109;28;20481;-64
2021/08/24 00:30:38;;;;;;;9.63;3.25;;;;;;;23.90;52.33;101247.44;4974118;28;20046;-64
2021/08/24 00:33:05;;;;;;;5.75;2.53;;;;;;;23.90;52.25;101254.66;4973900;28;20078;-64
2021/08/24 00:35:38;;;;;;;4.82;2.25;;;;;;;23.87;52.21;101250.47;4973994;28;20489;-64
2021/08/24 00:38:07;;;;;;;5.88;2.72;;;;;;;23.86;52.38;101256.81;4973847;28;20114;-64
2021/08/24 00:40:33;;;;;;;7.07;2.38;;;;;;;23.82;52.41;101252.78;4973900;28;20126;-64
2021/08/24 00:43:00;;;;;;;4.50;2.00;;;;;;;23.84;52.53;101258.81;4973936;28;20050;-64
2021/08/24 00:45:27;;;;;;;5.18;2.25;;;;;;;23.85;52.46;101260.50;4974054;28;20047;-64
2021/08/24 00:47:54;;;;;;;4.43;1.70;;;;;;;23.89;52.17;101261.84;4973723;28;20055;-64
2021/08/24 00:50:29;;;;;;;8.10;2.80;;;;;;;23.88;52.56;101253.97;4973601;28;20105;-64
2021/08/24 00:53:00;;;;;;;5.68;2.20;;;;;;;23.79;52.63;101255.78;4973861;28;20050;-64
2021/08/24 00:55:27;;;;;;;7.82;2.25;;;;;;;23.76;52.61;101250.75;4973773;28;20054;-64
2021/08/24 00:58:00;;;;;;;14.73;2.70;;;;;;;23.73;52.90;101253.75;4973668;28;20127;-64
2021/08/24 01:00:29;;;;;;;4.47;1.50;;;;;;;23.72;53.05;101255.59;4973722;28;20295;-64
2021/08/24 01:02:59;;;;;;;5.80;1.77;;;;;;;23.76;52.70;101262.31;4973462;28;20047;-64
2021/08/24 01:05:27;;;;;;;3.47;1.50;;;;;;;23.77;52.25;101257.81;4973793;28;20053;-63
2021/08/24 01:08:22;;;;;;;3.92;1.45;;;;;;;23.76;52.04;101259.63;4973447;28;20053;-64
2021/08/24 01:11:13;;;;;;;6.15;2.30;;;;;;;23.74;52.33;101256.25;4973440;28;20051;-64
2021/08/24 01:13:50;;;;;;;4.85;1.70;;;;;;;23.73;52.18;101251.91;4973664;28;20074;-64
2021/08/24 01:16:54;;;;;;;6.10;1.88;;;;;;;23.74;52.49;101253.56;4973411;28;20051;-63
2021/08/24 01:19:35;;;;;;;7.82;2.45;;;;;;;23.74;52.33;101252.75;4963901;28;20055;-63
2021/08/24 01:22:30;;;;;;;10.07;2.20;;;;;;;23.70;52.13;101256.75;4973205;28;20042;-64
2021/08/24 01:25:05;;;;;;;7.45;2.42;;;;;;;23.69;52.45;101263.13;4973255;28;20073;-64
2021/08/24 01:27:55;;;;;;;3.90;1.73;;;;;;;23.68;52.22;101264.09;4973431;28;20101;-64
2021/08/24 01:30:40;;;;;;;5.85;1.58;;;;;;;23.69;51.96;101255.91;4973066;28;20385;-63
2021/08/24 01:33:18;;;;;;;7.97;2.03;;;;;;;23.68;52.04;101256.94;4973239;28;20508;-64
2021/08/24 01:36:05;;;;;;;5.18;1.40;;;;;;;23.65;51.85;101257.22;4973422;28;20111;-63
2021/08/24 01:38:58;;;;;;;3.42;1.63;;;;;;;23.60;52.26;101259.56;4973216;28;20046;-63
2021/08/24 01:41:37;;;;;;;1.80;1.20;;;;;;;23.58;52.22;101262.41;4966701;28;20114;-64
2021/08/24 01:44:14;;;;;;;3.42;1.50;;;;;;;23.59;51.66;101261.41;4973173;28;20046;-64
2021/08/24 01:46:44;;;;;;;2.85;1.20;;;;;;;23.59;51.47;101258.72;4973198;28;20051;-63
2021/08/24 01:49:13;;;;;;;1.90;0.80;;;;;;;23.55;51.07;101265.38;4973032;28;20547;-64
2021/08/24 01:51:51;;;;;;;1.98;1.25;;;;;;;23.53;50.81;101264.72;4973105;28;20055;-63
2021/08/24 01:54:25;;;;;;;3.30;1.20;;;;;;;23.50;50.40;101264.19;4973301;28;20047;-63
2021/08/24 01:56:53;;;;;;;3.33;1.27;;;;;;;23.48;50.30;101267.88;4973150;28;20063;-63
2021/08/24 01:59:55;;;;;;;2.38;1.33;;;;;;;23.49;50.00;101263.38;4972849;28;20046;-63
2021/08/24 02:02:29;;;;;;;2.00;1.25;;;;;;;23.45;49.83;101253.94;4960371;28;20101;-63
2021/08/24 02:05:18;;;;;;;2.70;1.23;;;;;;;23.45;49.78;101259.31;4972999;28;20047;-64
2021/08/24 02:07:49;;;;;;;1.92;1.38;;;;;;;23.31;50.38;101252.69;4973052;28;20061;-64
2021/08/24 02:10:20;;;;;;;2.75;1.63;;;;;;;23.27;50.19;101249.53;4972907;28;20047;-64
2021/08/24 02:12:50;;;;;;;3.20;1.80;;;;;;;23.31;50.27;101253.56;4972940;28;20054;-63
2021/08/24 02:15:21;;;;;;;2.63;1.63;;;;;;;23.30;50.31;101249.19;4976480;28;20047;-63
2021/08/24 02:17:48;;;;;;;3.17;1.50;;;;;;;23.30;50.48;101257.22;4976618;28;20047;-63
2021/08/24 02:20:17;;;;;;;3.15;1.52;;;;;;;23.30;50.51;101253.72;4976443;28;20047;-63
2021/08/24 02:22:48;;;;;;;3.03;1.48;;;;;;;23.30;50.34;101253.72;4976492;28;20050;-63
2021/08/24 02:25:22;;;;;;;3.72;1.50;;;;;;;23.22;50.57;101248.31;4976320;28;20074;-64
2021/08/24 02:28:12;;;;;;;5.00;1.10;;;;;;;23.13;50.67;101250.91;4976316;28;20094;-63
2021/08/24 02:30:46;;;;;;;4.70;1.30;;;;;;;23.12;50.58;101241.19;4976216;28;20047;-63
2021/08/24 02:33:15;;;;;;;2.35;1.30;;;;;;;23.11;50.26;101244.03;4976507;28;20047;-64
2021/08/24 02:35:51;;;;;;;2.10;1.15;;;;;;;23.10;50.44;101237.00;4976386;28;20236;-63
2021/08/24 02:38:25;;;;;;;4.93;1.30;;;;;;;23.09;50.33;101235.31;4976245;28;20043;-64
2021/08/24 02:41:18;;;;;;;2.53;1.38;;;;;;;23.09;50.21;101237.97;4976152;28;20054;-64
2021/08/24 02:43:56;;;;;;;2.47;1.25;;;;;;;23.04;50.48;101233.09;4976159;28;20057;-63
2021/08/24 02:46:32;;;;;;;2.85;1.20;;;;;;;22.94;50.79;101225.19;4976053;28;20051;-64
2021/08/24 02:49:09;;;;;;;5.97;1.33;;;;;;;22.96;50.73;101227.69;4975959;28;20432;-64
2021/08/24 02:51:36;;;;;;;1.40;1.13;;;;;;;22.91;50.84;101225.47;4976016;28;20065;-64
2021/08/24 02:54:08;;;;;;;1.95;1.17;;;;;;;22.90;50.83;101231.81;4975870;28;20070;-63
2021/08/24 02:56:35;;;;;;;1.45;1.02;;;;;;;22.81;50.86;101238.13;4975697;28;20556;-63
2021/08/24 02:59:02;;;;;;;3.08;1.38;;;;;;;22.77;51.51;101242.94;4975472;28;20047;-64
2021/08/24 03:01:29;;;;;;;2.55;1.27;;;;;;;22.74;51.56;101234.38;4975926;28;20076;-63
2021/08/24 03:03:56;;;;;;;2.35;1.33;;;;;;;22.75;51.49;101228.84;4970721;28;20047;-64
2021/08/24 03:06:25;;;;;;;3.83;1.45;;;;;;;22.69;51.93;101225.97;4972084;28;20053;-64
2021/08/24 03:08:52;;;;;;;2.80;1.30;;;;;;;22.70;52.05;101224.97;4972174;28;20105;-64
2021/08/24 03:11:23;;;;;;;3.15;1.10;;;;;;;22.66;52.16;101219.97;4972288;28;20050;-64
2021/08/24 03:14:11;;;;;;;2.40;1.10;;;;;;;22.64;51.92;101219.25;4972227;28;20058;-63
2021/08/24 03:16:43;;;;;;;2.63;1.23;;;;;;;22.67;52.12;101218.09;4972176;28;20050;-64
2021/08/24 03:19:20;;;;;;;2.03;1.30;;;;;;;22.70;52.07;101222.31;4972081;28;20051;-64
2021/08/24 03:21:48;;;;;;;4.00;1.20;;;;;;;22.68;52.21;101222.47;4972067;28;20051;-64
2021/08/24 03:24:17;;;;;;;3.20;1.48;;;;;;;22.60;52.46;101225.06;4971195;28;20051;-64
2021/08/24 03:26:46;;;;;;;4.60;1.65;;;;;;;22.63;52.24;101214.06;4971299;28;20393;-63
2021/08/24 03:29:21;;;;;;;3.13;1.50;;;;;;;22.64;52.46;101221.94;4971937;28;20050;-63
2021/08/24 03:31:54;;;;;;;4.00;1.50;;;;;;;22.60;52.36;101214.38;4971709;28;20489;-64
2021/08/24 03:34:21;;;;;;;3.08;1.65;;;;;;;22.56;52.28;101205.81;4971665;28;20501;-63
2021/08/24 03:36:47;;;;;;;2.70;1.50;;;;;;;22.54;52.59;101202.47;4971645;28;20127;-63
2021/08/24 03:39:14;;;;;;;3.10;1.50;;;;;;;22.45;53.04;101203.41;4971674;28;20051;-64
2021/08/24 03:41:42;;;;;;;3.78;1.70;;;;;;;22.48;52.69;101209.25;4971786;28;20449;-64
2021/08/24 03:44:08;;;;;;;6.68;2.50;;;;;;;22.43;52.79;101208.03;4971411;28;20097;-65
2021/08/24 03:46:35;;;;;;;5.70;2.88;;;;;;;22.42;52.84;101217.06;4971620;28;20073;-63
2021/08/24 03:49:02;;;;;;;4.15;1.85;;;;;;;22.41;53.02;101213.56;4971471;28;20516;-64
2021/08/24 03:51:29;;;;;;;2.53;1.60;;;;;;;22.47;52.93;101199.56;4971475;28;20058;-64
2021/08/24 03:53:55;;;;;;;3.15;1.60;;;;;;;22.38;53.01;101196.97;4971454;28;20494;-63
2021/08/24 03:56:22;;;;;;;4.20;1.60;;;;;;;22.33;53.39;101197.38;4971497;28;20047;-63
2021/08/24 03:58:49;;;;;;;6.22;1.92;;;;;;;22.34;53.16;101197.22;4971360;28;20051;-64
2021/08/24 04:01:18;;;;;;;6.30;1.77;;;;;;;22.31;53.27;101199.41;4971351;28;20055;-64
2021/08/24 04:03:45;;;;;;;7.18;1.90;;;;;;;22.26;53.26;101194.50;4971178;28;20171;-63
2021/08/24 04:06:12;;;;;;;2.65;1.50;;;;;;;22.26;53.51;101191.81;4971065;28;20077;-64
2021/08/24 04:08:39;;;;;;;3.03;1.33;;;;;;;22.24;53.45;101192.97;4970998;28;20493;-64
2021/08/24 04:11:07;;;;;;;6.97;1.95;;;;;;;22.22;53.53;101186.91;4971163;28;20502;-63
2021/08/24 04:13:34;;;;;;;2.75;1.40;;;;;;;22.20;53.58;101189.75;4971153;28;20055;-64
2021/08/24 04:16:08;;;;;;;3.80;1.70;;;;;;;22.05;53.62;101193.94;4970984;28;20394;-63
2021/08/24 04:18:35;;;;;;;4.03;1.50;;;;;;;21.95;54.32;101178.84;4970869;28;20552;-64
2021/08/24 04:21:06;;;;;;;4.60;1.73;;;;;;;21.99;53.80;101190.03;4970903;28;20505;-64
2021/08/24 04:23:34;;;;;;;5.30;1.80;;;;;;;21.99;53.82;101192.69;4971000;28;20051;-64
2021/08/24 04:26:01;;;;;;;4.93;2.10;;;;;;;22.00;53.75;101203.28;4970958;28;20397;-63
2021/08/24 04:28:28;;;;;;;3.95;1.88;;;;;;;22.04;54.08;101208.28;4970826;28;20066;-63
2021/08/24 04:30:55;;;;;;;8.98;1.73;;;;;;;22.04;53.95;101219.00;4970700;28;20046;-64
2021/08/24 04:33:22;;;;;;;6.13;1.92;;;;;;;21.99;54.24;101206.94;4970512;28;20157;-65
2021/08/24 04:35:50;;;;;;;11.30;2.10;;;;;;;21.98;54.23;101223.13;4970313;28;20094;-64
2021/08/24 04:38:17;;;;;;;11.07;2.35;;;;;;;21.93;54.47;101220.88;4970781;28;20056;-64
2021/08/24 04:40:44;;;;;;;10.73;2.20;;;;;;;21.92;54.89;101219.19;4970616;28;20457;-64
2021/08/24 04:43:12;;;;;;;10.15;1.90;;;;;;;21.94;54.97;101217.22;4970389;28;20050;-65
2021/08/24 04:45:38;;;;;;;6.32;2.10;;;;;;;21.93;55.09;101222.69;4970504;28;20468;-64
2021/08/24 04:48:06;;;;;;;8.23;2.30;;;;;;;21.97;54.79;101226.78;4970266;28;20053;-64
2021/08/24 04:50:33;;;;;;;6.13;2.10;;;;;;;21.95;54.88;101223.41;4970511;28;20073;-64
2021/08/24 04:53:00;;;;;;;6.65;2.17;;;;;;;21.98;55.09;101226.63;4970384;28;20416;-64
2021/08/24 04:55:26;;;;;;;5.50;2.00;;;;;;;22.00;55.03;101219.31;4970534;28;20046;-64
2021/08/24 04:57:53;;;;;;;7.53;2.28;;;;;;;22.07;54.86;101218.66;4970331;28;20046;-63
2021/08/24 05:00:20;;;;;;;4.05;2.30;;;;;;;22.10;54.57;101221.06;4970073;28;20054;-64
2021/08/24 05:02:47;;;;;;;11.98;2.20;;;;;;;22.09;54.82;101238.91;4970004;28;20058;-64
2021/08/24 05:05:14;;;;;;;4.85;1.95;;;;;;;22.13;54.75;101243.00;4970243;28;20069;-64
2021/08/24 05:07:41;;;;;;;3.95;2.22;;;;;;;22.22;54.60;101243.06;4970055;28;20106;-64
2021/08/24 05:10:08;;;;;;;5.15;2.20;;;;;;;22.24;54.62;101233.91;4969968;28;20082;-64
2021/08/24 05:12:35;;;;;;;6.30;2.45;;;;;;;22.26;54.56;101237.28;4970137;28;20057;-64
2021/08/24 05:15:01;;;;;;;4.97;2.05;;;;;;;22.32;54.60;101234.00;4969899;28;20043;-64
2021/08/24 05:17:28;;;;;;;3.72;2.08;;;;;;;22.31;54.47;101236.81;4970051;28;20455;-64
2021/08/24 05:19:55;;;;;;;4.65;2.10;;;;;;;22.32;54.33;101231.31;4970161;28;20552;-64
2021/08/24 05:22:21;;;;;;;2.90;2.10;;;;;;;22.37;54.19;101238.06;4969750;28;20392;-64
2021/08/24 05:24:48;;;;;;;9.88;2.60;;;;;;;22.37;54.49;101241.56;4969756;28;20051;-64
2021/08/24 05:27:15;;;;;;;5.97;1.98;;;;;;;22.43;54.14;101248.16;4969966;28;20102;-64
2021/08/24 05:29:42;;;;;;;4.95;2.53;;;;;;;22.49;54.18;101243.03;4970306;28;20054;-64
2021/08/24 05:32:09;;;;;;;6.35;2.60;;;;;;;22.56;54.07;101245.09;4969763;28;20058;-64
2021/08/24 05:34:35;;;;;;;6.95;2.63;;;;;;;22.62;54.16;101233.78;4969793;28;20046;-64
2021/08/24 05:37:03;;;;;;;6.65;2.83;;;;;;;22.70;53.83;101231.16;4969864;28;20046;-64
2021/08/24 05:39:29;;;;;;;5.43;2.80;;;;;;;22.75;54.25;101233.38;4969776;28;20616;-64
2021/08/24 05:41:56;;;;;;;4.70;2.88;;;;;;;22.78;54.21;101235.75;4969983;28;20504;-64
2021/08/24 05:44:23;;;;;;;7.50;2.83;;;;;;;22.80;54.31;101236.44;4970107;28;20071;-65
2021/08/24 05:46:49;;;;;;;4.80;2.88;;;;;;;22.86;54.37;101235.00;4969729;28;20109;-65
2021/08/24 05:49:16;;;;;;;5.60;2.80;;;;;;;22.90;54.38;101233.66;4971802;28;20074;-65
2021/08/24 05:51:43;;;;;;;3.25;2.70;;;;;;;22.98;54.32;101236.38;4973508;28;20051;-65
2021/08/24 05:54:09;;;;;;;4.88;2.70;;;;;;;23.06;54.26;101244.50;4973595;28;20054;-65
2021/08/24 05:56:36;;;;;;;4.82;2.90;;;;;;;23.12;53.61;101243.88;4973655;28;20058;-65
2021/08/24 05:59:03;;;;;;;5.28;3.15;;;;;;;23.18;53.71;101237.06;4973584;28;20055;-65
2021/08/24 06:01:32;;;;;;;5.65;3.00;;;;;;;23.24;53.68;101243.63;4973588;28;20098;-65
2021/08/24 06:03:59;;;;;;;5.50;2.83;;;;;;;23.31;53.78;101242.84;4973511;28;20054;-65
2021/08/24 06:06:29;;;;;;;5.60;2.92;;;;;;;23.38;53.33;101244.88;4973638;28;20055;-65
2021/08/24 06:09:02;;;;;;;3.45;3.08;;;;;;;23.38;53.19;101243.03;4973133;28;20141;-65
2021/08/24 06:11:32;;;;;;;4.90;2.85;;;;;;;23.49;52.81;101241.94;4973275;28;20057;-65
2021/08/24 06:14:02;;;;;;;3.72;2.70;;;;;;;23.54;52.54;101247.66;4973267;28;20063;-65
2021/08/24 06:16:29;;;;;;;5.53;2.45;;;;;;;23.66;52.11;101247.38;4973318;28;20047;-65
2021/08/24 06:18:56;;;;;;;4.63;2.50;;;;;;;23.66;51.85;101250.88;4973105;28;20101;-65
2021/08/24 06:21:23;;;;;;;5.72;2.78;;;;;;;23.70;51.82;101246.88;4973269;28;20047;-65
2021/08/24 06:23:51;;;;;;;3.33;2.75;;;;;;;23.79;51.71;101245.06;4972605;28;20062;-65
2021/08/24 06:26:18;;;;;;;5.53;3.33;;;;;;;23.85;51.30;101235.56;4972886;28;20490;-65
2021/08/24 06:28:45;;;;;;;6.82;3.20;;;;;;;23.91;51.09;101242.94;4972893;28;20425;-65
2021/08/24 06:31:19;;;;;;;4.68;2.95;;;;;;;23.98;50.98;101238.63;4972751;28;20054;-65
2021/08/24 06:33:47;;;;;;;7.25;2.60;;;;;;;24.10;50.44;101247.22;4972786;28;20085;-65
2021/08/24 06:36:15;;;;;;;3.45;2.92;;;;;;;24.19;50.40;101235.50;4972682;28;20051;-65
2021/08/24 06:38:44;;;;;;;4.22;2.95;;;;;;;24.13;50.62;101250.38;4972671;28;20043;-65
2021/08/24 06:41:11;;;;;;;5.78;3.38;;;;;;;24.13;50.76;101239.66;4972824;28;20065;-65
2021/08/24 06:43:38;;;;;;;4.20;3.50;;;;;;;24.16;50.85;101241.19;4972651;28;20127;-65
2021/08/24 06:46:06;;;;;;;4.47;3.90;;;;;;;24.15;51.09;101238.66;4972646;28;20480;-65
2021/08/24 06:48:33;;;;;;;5.50;3.50;;;;;;;23.97;51.62;101244.97;4972568;28;20101;-65
2021/08/24 06:51:00;;;;;;;11.05;4.60;;;;;;;24.12;51.45;101251.41;4972876;28;20050;-65
2021/08/24 06:53:27;;;;;;;6.85;4.68;;;;;;;24.29;51.32;101254.13;4972560;28;20055;-65
2021/08/24 06:55:54;;;;;;;6.80;4.60;;;;;;;24.09;52.03;101259.78;4972457;28;20529;-65
2021/08/24 06:58:20;;;;;;;7.20;4.97;;;;;;;24.26;51.64;101259.81;4972234;28;20492;-65
2021/08/24 07:00:48;;;;;;;6.13;4.55;;;;;;;24.60;51.09;101253.47;4972083;28;20094;-65
2021/08/24 07:03:16;;;;;;;6.60;4.80;;;;;;;24.60;51.10;101251.63;4972410;28;20647;-65
2021/08/24 07:05:46;;;;;;;6.85;4.38;;;;;;;24.83;50.57;101253.69;4972355;28;20093;-65
2021/08/24 07:08:13;;;;;;;5.70;4.55;;;;;;;24.92;50.15;101252.69;4971982;28;20593;-65
2021/08/24 07:10:40;;;;;;;7.88;4.72;;;;;;;24.88;50.49;101248.63;4972303;28;20583;-65
2021/08/24 07:13:07;;;;;;;5.95;4.18;;;;;;;25.16;49.72;101250.94;4972029;28;20509;-65
2021/08/24 07:15:35;;;;;;;6.22;4.03;;;;;;;25.37;49.00;101244.22;4971885;28;20521;-65
2021/08/24 07:18:03;;;;;;;9.63;4.10;;;;;;;25.54;48.57;101253.06;4971831;28;20051;-65
2021/08/24 07:20:30;;;;;;;9.05;4.30;;;;;;;25.73;48.26;101254.50;4971867;28;20059;-65
2021/08/24 07:22:58;;;;;;;7.20;4.43;;;;;;;25.78;48.13;101257.50;4972002;28;20552;-65
2021/08/24 07:25:26;;;;;;;7.30;4.35;;;;;;;25.87;47.69;101266.38;4971802;28;20055;-65
2021/08/24 07:27:54;;;;;;;9.43;4.32;;;;;;;25.78;48.18;101254.00;4972097;28;20053;-65
2021/08/24 07:30:22;;;;;;;7.88;4.85;;;;;;;25.70;48.06;101258.38;4972005;28;20043;-65
2021/08/24 07:32:49;;;;;;;9.60;4.65;;;;;;;25.99;47.48;101254.22;4971735;28;20102;-65
2021/08/24 07:35:17;;;;;;;8.10;4.22;;;;;;;26.17;47.15;101250.44;4971567;28;20671;-65
2021/08/24 07:37:44;;;;;;;5.72;3.70;;;;;;;26.26;46.94;101251.22;4971651;28;20082;-65
2021/08/24 07:40:12;;;;;;;6.15;4.22;;;;;;;26.43;46.49;101246.59;4971623;28;20050;-65
2021/08/24 07:42:40;;;;;;;7.55;4.03;;;;;;;26.40;46.82;101251.28;4971696;28;20051;-65
2021/08/24 07:45:08;;;;;;;12.95;4.38;;;;;;;25.79;48.29;101261.88;4971581;28;20103;-65
2021/08/24 07:47:35;;;;;;;10.15;4.05;;;;;;;26.06;47.50;101265.97;4971514;28;20050;-65
2021/08/24 07:50:03;;;;;;;8.80;4.38;;;;;;;25.94;47.71;101264.69;4971444;28;20047;-65
2021/08/24 07:52:30;;;;;;;7.78;4.75;;;;;;;26.16;47.27;101265.75;4971306;28;20485;-65
2021/08/24 07:54:57;;;;;;;5.82;4.05;;;;;;;26.48;46.70;101252.25;4971202;28;20051;-65
2021/08/24 07:57:23;;;;;;;7.82;4.00;;;;;;;26.76;46.13;101257.13;4971241;28;20058;-65
2021/08/24 07:59:50;;;;;;;6.28;3.70;;;;;;;26.97;45.71;101251.88;4971516;28;20054;-65
2021/08/24 08:02:17;;;;;;;6.90;4.50;;;;;;;27.15;45.26;101253.38;4971432;28;20051;-65
2021/08/24 08:04:45;;;;;;;7.63;5.10;;;;;;;27.25;45.11;101251.25;4971258;28;20058;-65
2021/08/24 08:07:13;;;;;;;9.20;5.10;;;;;;;27.23;45.29;101247.06;4970892;28;20047;-65
2021/08/24 08:09:40;;;;;;;8.00;4.95;;;;;;;27.39;44.79;101255.00;4970952;28;20061;-65
2021/08/24 08:12:07;;;;;;;9.05;4.65;;;;;;;27.54;44.66;101261.22;4970098;28;20043;-65
2021/08/24 08:14:34;;;;;;;8.55;4.75;;;;;;;27.61;44.70;101255.09;4970734;28;20051;-65
2021/08/24 08:17:01;;;;;;;6.25;4.55;;;;;;;27.90;44.05;101258.78;4970838;28;20493;-65
2021/08/24 08:19:28;;;;;;;6.57;4.55;;;;;;;27.97;43.82;101260.53;4953775;28;20054;-65
2021/08/24 08:21:55;;;;;;;6.22;4.93;;;;;;;27.98;43.37;101256.78;4971042;28;20042;-65
2021/08/24 08:24:22;;;;;;;7.50;5.18;;;;;;;28.19;42.58;101260.56;4971042;28;20062;-65
2021/08/24 08:26:48;;;;;;;8.20;4.97;;;;;;;28.41;42.39;101266.00;4970792;28;20514;-64
2021/08/24 08:29:15;;;;;;;8.15;4.55;;;;;;;28.44;41.91;101266.44;4970569;28;20113;-65
2021/08/24 08:31:45;;;;;;;7.95;4.55;;;;;;;28.58;41.27;101262.00;4970604;28;20047;-65
2021/08/24 08:34:12;;;;;;;7.88;5.18;;;;;;;28.76;40.91;101256.16;4970404;28;20062;-65
2021/08/24 08:36:39;;;;;;;7.32;5.38;;;;;;;28.79;40.67;101257.63;4970526;28;20054;-65
2021/08/24 08:39:06;;;;;;;9.32;5.10;;;;;;;28.93;40.40;101258.56;4970342;28;20559;-65
2021/08/24 08:41:35;;;;;;;10.20;5.85;;;;;;;29.08;40.03;101256.59;4970508;28;20047;-65
2021/08/24 08:44:25;;;;;;;11.40;6.00;;;;;;;29.13;39.87;101262.25;4970277;28;20054;-65
2021/08/24 08:47:21;;;;;;;6.90;5.10;;;;;;;29.40;39.39;101253.50;4970526;28;20055;-65
2021/08/24 08:50:12;;;;;;;10.20;6.50;;;;;;;29.29;39.43;101263.84;4970266;28;20046;-65
2021/08/24 08:52:55;;;;;;;12.18;6.70;;;;;;;28.88;40.18;101266.44;4957438;28;20489;-66
2021/08/24 08:55:21;;;;;;;9.20;5.93;;;;;;;29.19;39.78;101267.88;4970235;28;20038;-65
2021/08/24 08:58:19;;;;;;;7.55;5.50;;;;;;;29.56;38.89;101260.44;4970290;28;20496;-65
2021/08/24 09:00:57;;;;;;;12.73;6.13;;;;;;;29.75;38.57;101254.28;4970392;28;20082;-65
2021/08/24 09:03:44;;;;;;;9.38;5.30;;;;;;;29.79;38.48;101257.44;4970257;28;20129;-65
2021/08/24 09:06:11;;;;;;;10.77;5.45;;;;;;;30.09;37.97;101259.81;4970012;28;20042;-65
2021/08/24 09:08:40;;;;;;;8.70;5.68;;;;;;;30.17;37.84;101261.50;4969943;28;20058;-65
2021/08/24 09:11:10;;;;;;;10.30;4.85;;;;;;;30.00;37.99;101261.88;4970000;28;20051;-65
2021/08/24 09:13:43;;;;;;;7.93;4.60;;;;;;;30.20;37.73;101256.53;4969899;28;20065;-65
2021/08/24 09:16:09;;;;;;;6.63;4.40;;;;;;;30.22;37.54;101264.44;4969903;28;20069;-65
2021/08/24 09:18:56;;;;;;;8.48;4.50;;;;;;;29.88;37.46;101255.38;4970089;28;20046;-66
2021/08/24 09:21:26;;;;;;;5.15;3.80;;;;;;;30.42;36.49;101262.63;4969875;28;20047;-65
2021/08/24 09:23:54;;;;;;;4.72;3.20;;;;;;;30.71;35.89;101263.28;4969769;28;20062;-65
2021/08/24 09:26:39;;;;;;;5.45;3.38;;;;;;;31.09;34.71;101254.50;4969826;28;20062;-65
2021/08/24 09:29:06;;;;;;;;;;;;;;;31.08;34.76;101255.59;4970032;28;20053;-65
2021/08/24 09:31:35;;;;;;;4.88;2.30;;;;;;;31.29;34.03;101248.22;4969887;28;19977;-65
2021/08/24 09:34:03;;;;;;;3.35;2.10;;;;;;;30.71;35.15;101254.31;4969446;28;20138;-65
2021/08/24 09:36:30;;;;;;;3.13;2.20;;;;;;;30.50;35.13;101256.19;4969850;28;20051;-65
2021/08/24 09:38:59;;;;;;;3.85;2.15;;;;;;;31.12;33.48;101249.72;4969790;28;20543;-65
2021/08/24 09:41:31;;;;;;;3.08;2.13;;;;;;;30.74;34.29;101252.03;4969788;28;20043;-65
2021/08/24 09:44:20;;;;;;;6.32;2.22;;;;;;;30.91;33.48;101249.72;4969644;28;20485;-65
2021/08/24 09:46:49;;;;;;;3.13;2.25;;;;;;;31.17;32.54;101244.50;4969822;28;20568;-65
2021/08/24 09:49:22;;;;;;;3.35;2.17;;;;;;;31.51;32.00;101243.34;4969774;28;20074;-65
2021/08/24 09:52:02;;;;;;;2.45;1.60;;;;;;;31.71;31.47;101237.03;4969695;28;20051;-65
2021/08/24 09:54:49;;;;;;;4.00;2.00;;;;;;;31.67;31.95;101243.94;4969674;28;20501;-65
2021/08/24 09:57:20;;;;;;;2.50;1.98;;;;;;;31.08;32.99;101244.72;4969530;28;20078;-65
2021/08/24 10:00:18;;;;;;;2.50;1.58;;;;;;;31.18;33.17;101240.75;4969744;28;20055;-65
2021/08/24 10:02:49;;;;;;;3.28;1.40;;;;;;;31.55;32.05;101246.47;4952639;28;20059;-65
2021/08/24 10:05:20;;;;;;;4.07;2.00;;;;;;;31.61;31.68;101244.78;4969596;28;20051;-65
2021/08/24 10:07:50;;;;;;;2.47;1.30;;;;;;;31.55;31.82;101235.63;4969492;28;20047;-65
2021/08/24 10:10:22;;;;;;;3.63;1.90;;;;;;;31.10;32.59;101242.63;4969311;28;20457;-65
2021/08/24 10:12:53;;;;;;;3.53;2.78;;;;;;;31.51;31.53;101226.25;4969489;28;20497;-65
2021/08/24 10:15:37;;;;;;;4.68;2.30;;;;;;;31.67;31.57;101225.78;4969437;28;20137;-65
2021/08/24 10:18:21;;;;;;;3.42;1.80;;;;;;;32.27;30.83;101224.63;4969380;28;20054;-65
2021/08/24 10:20:57;;;;;;;1.92;1.30;;;;;;;31.97;31.32;101221.66;4969631;28;20604;-65
2021/08/24 10:23:28;;;;;;;1.98;1.30;;;;;;;32.46;29.85;101219.28;4969530;28;20542;-65
2021/08/24 10:25:58;;;;;;;1.77;1.40;;;;;;;32.80;29.58;101217.09;4969612;28;20051;-65
2021/08/24 10:28:30;;;;;;;2.67;1.50;;;;;;;31.99;30.86;101212.25;4969475;28;20051;-65
2021/08/24 10:30:59;;;;;;;2.20;1.50;;;;;;;31.19;31.55;101218.00;4969508;28;20047;-65
2021/08/24 10:33:38;;;;;;;3.97;1.63;;;;;;;30.80;32.06;101227.84;4969111;28;20054;-65
2021/08/24 10:36:13;;;;;;;3.38;1.58;;;;;;;30.47;32.55;101229.47;4972630;28;20050;-65
2021/08/24 10:38:55;;;;;;;3.03;1.92;;;;;;;30.17;32.90;101231.72;4973066;28;20548;-65
2021/08/24 10:41:33;;;;;;;3.40;1.42;;;;;;;30.06;33.25;101231.31;4972626;28;20042;-65
2021/08/24 10:44:06;;;;;;;2.53;1.90;;;;;;;29.91;33.51;101228.75;4972821;28;20047;-65
2021/08/24 10:46:46;;;;;;;4.05;1.90;;;;;;;30.55;32.29;101221.19;4972810;28;20110;-65
2021/08/24 10:49:13;;;;;;;1.92;1.40;;;;;;;30.32;32.80;101218.03;4972586;28;20055;-65
2021/08/24 10:51:44;;;;;;;3.88;1.60;;;;;;;31.23;31.08;101213.81;4972942;28;20453;-65
2021/08/24 10:54:29;;;;;;;2.03;1.40;;;;;;;31.99;30.09;101219.56;4972641;28;20065;-65
2021/08/24 10:57:14;;;;;;;;;;;;;;;31.97;30.22;101214.34;4972924;28;20082;-65
2021/08/24 11:00:03;;;;;;;4.32;1.45;;;;;;;31.50;30.57;101219.16;4972455;28;19961;-65
2021/08/24 11:02:39;;;;;;;2.92;1.40;;;;;;;31.94;29.86;101222.94;4972219;28;20057;-65
2021/08/24 11:05:24;;;;;;;2.10;1.30;;;;;;;32.75;28.43;101214.22;4972385;28;20133;-65
2021/08/24 11:08:15;;;;;;;;;;;;;;;33.05;28.07;101220.63;4972550;28;20078;-65
2021/08/24 11:10:49;;;;;;;2.38;1.83;;;;;;;34.04;26.82;101216.06;4960426;28;19922;-65
2021/08/24 11:13:40;;;;;;;2.58;1.35;;;;;;;34.61;26.40;101203.84;4971949;28;20051;-65
2021/08/24 11:16:33;;;;;;;3.53;1.50;;;;;;;34.69;25.91;101205.41;4972281;28;20408;-65
2021/08/24 11:19:46;;;;;;;3.28;1.48;;;;;;;34.91;26.17;101198.31;4972148;28;20874;-65
2021/08/24 11:22:30;;;;;;;4.85;1.48;;;;;;;35.04;25.70;101182.75;4971893;28;20232;-65
2021/08/24 11:25:47;;;;;;;1.65;1.20;;;;;;;35.05;25.58;101182.50;4971884;28;20057;-65
2021/08/24 11:28:52;;;;;;;1.30;0.90;;;;;;;35.27;25.56;101176.41;4874598;29;20057;-66
2021/08/24 11:31:33;;;;;;;2.83;1.42;;;;;;;35.49;24.92;101176.59;4874565;29;20109;-65
2021/08/24 11:34:18;;;;;;;2.10;1.40;;;;;;;35.55;24.57;101180.25;4955883;28;20058;-65
2021/08/24 11:36:53;;;;;;;3.05;1.33;;;;;;;35.64;24.53;101170.59;4971905;28;20047;-65
2021/08/24 11:39:38;;;;;;;1.63;1.10;;;;;;;35.75;24.32;101168.88;4971651;28;20058;-66
2021/08/24 11:42:07;;;;;;;1.73;1.13;;;;;;;35.85;23.95;101165.50;4971702;28;20543;-65
2021/08/24 11:44:55;;;;;;;3.25;1.00;;;;;;;35.90;23.68;101165.63;4971591;28;20047;-66
2021/08/24 11:47:37;;;;;;;1.90;1.10;;;;;;;35.69;23.53;101158.94;4970259;28;20567;-66